sensor_id;sensor_type;location;lat;lon;timestamp;pressure;altitude;pressure_sealevel;temperature;humidity
8280;BME280;8335;42.646;23.380;2022-07-30T00:02:06;94490.25;;;22.78;59.20
8280;BME280;8335;42.646;23.380;2022-07-30T00:04:32;94500.78;;;22.76;59.56
8280;BME280;8335;42.646;23.380;2022-07-30T00:06:59;94498.03;;;22.78;59.47
8280;BME280;8335;42.646;23.380;2022-07-30T00:09:28;94490.13;;;22.79;59.33
8280;BME280;8335;42.646;23.380;2022-07-30T00:11:56;94490.44;;;22.85;58.76
8280;BME280;8335;42.646;23.380;2022-07-30T00:14:23;94489.66;;;22.84;59.10
8280;BME280;8335;42.646;23.380;2022-07-30T00:16:50;94490.34;;;22.86;58.58
8280;BME280;8335;42.646;23.380;2022-07-30T00:19:17;94486.06;;;22.85;58.82
8280;BME280;8335;42.646;23.380;2022-07-30T00:21:44;94479.66;;;22.89;58.96
8280;BME280;8335;42.646;23.380;2022-07-30T00:24:11;94478.69;;;22.90;58.29
8280;BME280;8335;42.646;23.380;2022-07-30T00:26:38;94483.47;;;22.85;59.21
8280;BME280;8335;42.646;23.380;2022-07-30T00:29:06;94477.97;;;22.80;59.35
8280;BME280;8335;42.646;23.380;2022-07-30T00:31:33;94482.94;;;22.73;59.75
8280;BME280;8335;42.646;23.380;2022-07-30T00:33:59;94480.16;;;22.67;59.98
8280;BME280;8335;42.646;23.380;2022-07-30T00:36:26;94482.91;;;22.65;60.08
8280;BME280;8335;42.646;23.380;2022-07-30T00:38:53;94477.84;;;22.64;59.98
8280;BME280;8335;42.646;23.380;2022-07-30T00:41:19;94482.09;;;22.65;59.81
8280;BME280;8335;42.646;23.380;2022-07-30T00:43:46;94476.91;;;22.65;59.79
8280;BME280;8335;42.646;23.380;2022-07-30T00:46:14;94482.75;;;22.67;59.91
8280;BME280;8335;42.646;23.380;2022-07-30T00:48:41;94476.91;;;22.65;59.79
8280;BME280;8335;42.646;23.380;2022-07-30T00:51:08;94482.38;;;22.62;60.29
8280;BME280;8335;42.646;23.380;2022-07-30T00:53:35;94474.09;;;22.58;59.85
8280;BME280;8335;42.646;23.380;2022-07-30T00:56:03;94467.78;;;22.61;59.90
8280;BME280;8335;42.646;23.380;2022-07-30T00:58:30;94470.72;;;22.66;59.73
8280;BME280;8335;42.646;23.380;2022-07-30T01:00:56;94470.84;;;22.64;59.98
8280;BME280;8335;42.646;23.380;2022-07-30T01:03:25;94470.22;;;22.62;60.25
8280;BME280;8335;42.646;23.380;2022-07-30T01:05:51;94472.16;;;22.60;60.42
8280;BME280;8335;42.646;23.380;2022-07-30T01:08:18;94456.22;;;22.55;60.81
8280;BME280;8335;42.646;23.380;2022-07-30T01:10:45;94462.38;;;22.54;60.43
8280;BME280;8335;42.646;23.380;2022-07-30T01:13:12;94463.56;;;22.60;60.49
8280;BME280;8335;42.646;23.380;2022-07-30T01:15:38;94456.88;;;22.57;60.77
8280;BME280;8335;42.646;23.380;2022-07-30T01:18:07;94453.78;;;22.53;61.23
8280;BME280;8335;42.646;23.380;2022-07-30T01:20:37;94458.75;;;22.47;61.25
8280;BME280;8335;42.646;23.380;2022-07-30T01:23:08;94460.50;;;22.38;61.67
8280;BME280;8335;42.646;23.380;2022-07-30T01:25:54;94462.28;;;22.38;61.57
8280;BME280;8335;42.646;23.380;2022-07-30T01:28:24;94461.97;;;22.41;61.63
8280;BME280;8335;42.646;23.380;2022-07-30T01:30:53;94463.75;;;22.40;61.64
8280;BME280;8335;42.646;23.380;2022-07-30T01:33:23;94468.78;;;22.42;62.00
8280;BME280;8335;42.646;23.380;2022-07-30T01:35:51;94465.09;;;22.44;61.83
8280;BME280;8335;42.646;23.380;2022-07-30T01:38:21;94464.56;;;22.41;61.89
8280;BME280;8335;42.646;23.380;2022-07-30T01:40:49;94460.72;;;22.45;61.24
8280;BME280;8335;42.646;23.380;2022-07-30T01:43:20;94462.00;;;22.49;61.30
8280;BME280;8335;42.646;23.380;2022-07-30T01:45:48;94452.44;;;22.49;61.86
8280;BME280;8335;42.646;23.380;2022-07-30T01:48:18;94452.31;;;22.51;61.86
8280;BME280;8335;42.646;23.380;2022-07-30T01:50:48;94455.72;;;22.51;61.67
8280;BME280;8335;42.646;23.380;2022-07-30T01:53:19;94457.44;;;22.43;62.37
8280;BME280;8335;42.646;23.380;2022-07-30T01:55:47;94457.28;;;22.44;62.00
8280;BME280;8335;42.646;23.380;2022-07-30T01:58:18;94454.84;;;22.43;62.25
8280;BME280;8335;42.646;23.380;2022-07-30T02:00:48;94440.66;;;22.29;62.21
8280;BME280;8335;42.646;23.380;2022-07-30T02:03:15;94457.09;;;22.38;62.71
8280;BME280;8335;42.646;23.380;2022-07-30T02:05:44;94457.53;;;22.33;62.83
8280;BME280;8335;42.646;23.380;2022-07-30T02:08:17;94455.53;;;22.27;63.14
8280;BME280;8335;42.646;23.380;2022-07-30T02:10:51;94445.31;;;22.25;63.05
8280;BME280;8335;42.646;23.380;2022-07-30T02:13:22;94440.72;;;22.19;63.31
8280;BME280;8335;42.646;23.380;2022-07-30T02:15:55;94441.84;;;22.17;63.32
8280;BME280;8335;42.646;23.380;2022-07-30T02:18:27;94438.78;;;22.21;63.58
8280;BME280;8335;42.646;23.380;2022-07-30T02:21:00;94441.25;;;22.23;62.83
8280;BME280;8335;42.646;23.380;2022-07-30T02:23:28;94433.59;;;22.21;63.19
8280;BME280;8335;42.646;23.380;2022-07-30T02:25:56;94430.72;;;22.24;62.54
8280;BME280;8335;42.646;23.380;2022-07-30T02:28:27;94438.66;;;22.23;63.00
8280;BME280;8335;42.646;23.380;2022-07-30T02:30:58;94440.28;;;22.24;63.08
8280;BME280;8335;42.646;23.380;2022-07-30T02:33:28;94432.19;;;22.27;63.21
8280;BME280;8335;42.646;23.380;2022-07-30T02:35:58;94429.59;;;22.27;62.87
8280;BME280;8335;42.646;23.380;2022-07-30T02:38:26;94431.53;;;22.25;62.97
8280;BME280;8335;42.646;23.380;2022-07-30T02:40:53;94432.66;;;22.22;63.05
8280;BME280;8335;42.646;23.380;2022-07-30T02:43:21;94432.94;;;22.19;63.76
8280;BME280;8335;42.646;23.380;2022-07-30T02:45:52;94431.78;;;22.14;63.59
8280;BME280;8335;42.646;23.380;2022-07-30T02:48:20;94431.94;;;22.12;63.62
8280;BME280;8335;42.646;23.380;2022-07-30T02:50:50;94431.13;;;22.12;63.91
8280;BME280;8335;42.646;23.380;2022-07-30T02:53:18;94419.28;;;22.09;63.95
8280;BME280;8335;42.646;23.380;2022-07-30T02:55:46;94431.44;;;22.09;63.67
8280;BME280;8335;42.646;23.380;2022-07-30T02:58:16;94423.09;;;22.05;64.36
8280;BME280;8335;42.646;23.380;2022-07-30T03:00:45;94426.34;;;22.07;64.59
8280;BME280;8335;42.646;23.380;2022-07-30T03:03:15;94418.88;;;22.04;64.61
8280;BME280;8335;42.646;23.380;2022-07-30T03:05:43;94422.59;;;22.02;64.65
8280;BME280;8335;42.646;23.380;2022-07-30T03:08:10;94418.22;;;22.02;64.71
8280;BME280;8335;42.646;23.380;2022-07-30T03:10:38;94422.84;;;22.08;64.82
8280;BME280;8335;42.646;23.380;2022-07-30T03:13:09;94421.31;;;22.06;64.66
8280;BME280;8335;42.646;23.380;2022-07-30T03:15:42;94414.66;;;22.03;65.12
8280;BME280;8335;42.646;23.380;2022-07-30T03:18:12;94409.47;;;22.03;65.32
8280;BME280;8335;42.646;23.380;2022-07-30T03:20:43;94420.13;;;22.00;65.42
8280;BME280;8335;42.646;23.380;2022-07-30T03:23:12;94413.63;;;21.96;66.23
8280;BME280;8335;42.646;23.380;2022-07-30T03:25:41;94415.84;;;21.91;66.72
8280;BME280;8335;42.646;23.380;2022-07-30T03:28:13;94413.84;;;21.85;67.16
8280;BME280;8335;42.646;23.380;2022-07-30T03:30:40;94420.81;;;21.84;67.40
8280;BME280;8335;42.646;23.380;2022-07-30T03:33:09;94419.84;;;21.85;67.03
8280;BME280;8335;42.646;23.380;2022-07-30T03:35:36;94419.19;;;21.83;67.09
8280;BME280;8335;42.646;23.380;2022-07-30T03:38:05;94433.44;;;21.79;67.70
8280;BME280;8335;42.646;23.380;2022-07-30T03:40:33;94429.19;;;21.78;67.60
8280;BME280;8335;42.646;23.380;2022-07-30T03:43:00;94430.97;;;21.78;67.87
8280;BME280;8335;42.646;23.380;2022-07-30T03:45:27;94439.41;;;21.80;68.37
8280;BME280;8335;42.646;23.380;2022-07-30T03:47:54;94435.94;;;21.89;67.68
8280;BME280;8335;42.646;23.380;2022-07-30T03:50:21;94430.09;;;21.87;67.84
8280;BME280;8335;42.646;23.380;2022-07-30T03:52:48;94428.06;;;21.98;67.02
8280;BME280;8335;42.646;23.380;2022-07-30T03:55:17;94434.56;;;22.20;66.51
8280;BME280;8335;42.646;23.380;2022-07-30T03:57:44;94428.59;;;22.46;65.33
8280;BME280;8335;42.646;23.380;2022-07-30T04:00:12;94429.41;;;22.72;64.20
8280;BME280;8335;42.646;23.380;2022-07-30T04:02:40;94435.66;;;22.88;63.26
8280;BME280;8335;42.646;23.380;2022-07-30T04:05:08;94437.72;;;23.10;63.14
8280;BME280;8335;42.646;23.380;2022-07-30T04:07:35;94444.31;;;23.47;61.84
8280;BME280;8335;42.646;23.380;2022-07-30T04:10:02;94450.44;;;23.80;60.18
8280;BME280;8335;42.646;23.380;2022-07-30T04:12:30;94438.41;;;24.03;59.65
8280;BME280;8335;42.646;23.380;2022-07-30T04:14:57;94446.06;;;24.29;58.30
8280;BME280;8335;42.646;23.380;2022-07-30T04:17:28;94447.00;;;24.61;56.87
8280;BME280;8335;42.646;23.380;2022-07-30T04:20:01;94444.34;;;24.93;55.94
8280;BME280;8335;42.646;23.380;2022-07-30T04:22:31;94455.81;;;25.23;55.10
8280;BME280;8335;42.646;23.380;2022-07-30T04:24:59;94445.88;;;25.58;53.61
8280;BME280;8335;42.646;23.380;2022-07-30T04:27:27;94448.22;;;25.76;53.22
8280;BME280;8335;42.646;23.380;2022-07-30T04:29:56;94442.84;;;26.00;52.47
8280;BME280;8335;42.646;23.380;2022-07-30T04:32:23;94445.06;;;26.64;50.86
8280;BME280;8335;42.646;23.380;2022-07-30T04:34:51;94451.16;;;26.94;48.79
8280;BME280;8335;42.646;23.380;2022-07-30T04:37:20;94454.78;;;27.08;48.46
8280;BME280;8335;42.646;23.380;2022-07-30T04:39:48;94446.72;;;27.39;47.67
8280;BME280;8335;42.646;23.380;2022-07-30T04:42:18;94460.13;;;27.65;47.65
8280;BME280;8335;42.646;23.380;2022-07-30T04:44:45;94461.16;;;28.07;46.05
8280;BME280;8335;42.646;23.380;2022-07-30T04:47:13;94458.97;;;28.54;44.81
8280;BME280;8335;42.646;23.380;2022-07-30T04:49:41;94467.41;;;29.05;43.76
8280;BME280;8335;42.646;23.380;2022-07-30T04:52:10;94461.69;;;29.77;42.29
8280;BME280;8335;42.646;23.380;2022-07-30T04:54:39;94467.84;;;30.11;41.07
8280;BME280;8335;42.646;23.380;2022-07-30T04:57:09;94471.16;;;30.73;39.89
8280;BME280;8335;42.646;23.380;2022-07-30T04:59:36;94475.03;;;31.55;38.00
8280;BME280;8335;42.646;23.380;2022-07-30T05:02:05;94478.91;;;32.60;36.01
8280;BME280;8335;42.646;23.380;2022-07-30T05:04:34;94464.59;;;33.36;35.05
8280;BME280;8335;42.646;23.380;2022-07-30T05:07:02;94474.94;;;33.74;34.53
8280;BME280;8335;42.646;23.380;2022-07-30T05:09:30;94464.41;;;33.56;34.17
8280;BME280;8335;42.646;23.380;2022-07-30T05:11:57;94470.44;;;33.93;33.92
8280;BME280;8335;42.646;23.380;2022-07-30T05:14:25;94465.78;;;34.07;33.38
8280;BME280;8335;42.646;23.380;2022-07-30T05:16:52;94468.63;;;34.24;33.50
8280;BME280;8335;42.646;23.380;2022-07-30T05:19:20;94481.13;;;34.70;32.88
8280;BME280;8335;42.646;23.380;2022-07-30T05:21:50;94475.41;;;35.32;32.27
8280;BME280;8335;42.646;23.380;2022-07-30T05:24:17;94484.06;;;35.15;32.65
8280;BME280;8335;42.646;23.380;2022-07-30T05:26:44;94486.09;;;34.90;32.55
8280;BME280;8335;42.646;23.380;2022-07-30T05:29:11;94476.44;;;34.30;33.60
8280;BME280;8335;42.646;23.380;2022-07-30T05:31:38;94471.75;;;33.54;34.28
8280;BME280;8335;42.646;23.380;2022-07-30T05:34:04;94481.38;;;32.55;36.22
8280;BME280;8335;42.646;23.380;2022-07-30T05:36:31;94469.53;;;32.39;36.80
8280;BME280;8335;42.646;23.380;2022-07-30T05:39:00;94473.16;;;32.45;37.35
8280;BME280;8335;42.646;23.380;2022-07-30T05:41:26;94482.88;;;32.69;36.69
8280;BME280;8335;42.646;23.380;2022-07-30T05:43:53;94474.84;;;33.07;35.67
8280;BME280;8335;42.646;23.380;2022-07-30T05:46:20;94480.06;;;33.32;35.92
8280;BME280;8335;42.646;23.380;2022-07-30T05:48:47;94480.72;;;34.01;35.36
8280;BME280;8335;42.646;23.380;2022-07-30T05:51:13;94481.38;;;34.80;34.33
8280;BME280;8335;42.646;23.380;2022-07-30T05:53:41;94493.53;;;35.75;32.79
8280;BME280;8335;42.646;23.380;2022-07-30T05:56:09;94493.88;;;36.07;31.59
8280;BME280;8335;42.646;23.380;2022-07-30T05:58:36;94491.09;;;36.42;30.65
8280;BME280;8335;42.646;23.380;2022-07-30T06:01:02;94486.28;;;36.56;30.88
8280;BME280;8335;42.646;23.380;2022-07-30T06:03:29;94495.63;;;36.75;30.29
8280;BME280;8335;42.646;23.380;2022-07-30T06:05:56;94494.75;;;36.86;30.60
8280;BME280;8335;42.646;23.380;2022-07-30T06:08:22;94487.00;;;37.18;30.36
8280;BME280;8335;42.646;23.380;2022-07-30T06:10:49;94492.44;;;37.29;29.45
8280;BME280;8335;42.646;23.380;2022-07-30T06:13:17;94501.84;;;37.53;29.27
8280;BME280;8335;42.646;23.380;2022-07-30T06:15:44;94506.16;;;37.59;28.41
8280;BME280;8335;42.646;23.380;2022-07-30T06:18:10;94500.88;;;37.81;29.05
8280;BME280;8335;42.646;23.380;2022-07-30T06:20:37;94505.63;;;38.01;28.26
8280;BME280;8335;42.646;23.380;2022-07-30T06:23:04;94506.03;;;38.37;27.75
8280;BME280;8335;42.646;23.380;2022-07-30T06:25:31;94500.38;;;38.60;27.09
8280;BME280;8335;42.646;23.380;2022-07-30T06:27:57;94511.44;;;39.11;26.39
8280;BME280;8335;42.646;23.380;2022-07-30T06:30:25;94504.31;;;39.59;25.56
8280;BME280;8335;42.646;23.380;2022-07-30T06:32:54;94509.47;;;39.81;25.49
8280;BME280;8335;42.646;23.380;2022-07-30T06:35:21;94512.19;;;40.01;25.50
8280;BME280;8335;42.646;23.380;2022-07-30T06:37:47;94511.75;;;40.30;25.38
8280;BME280;8335;42.646;23.380;2022-07-30T06:40:14;94504.59;;;40.51;24.50
8280;BME280;8335;42.646;23.380;2022-07-30T06:42:41;94507.03;;;40.67;24.63
8280;BME280;8335;42.646;23.380;2022-07-30T06:45:09;94505.94;;;40.48;24.23
8280;BME280;8335;42.646;23.380;2022-07-30T06:47:37;94500.59;;;40.53;24.64
8280;BME280;8335;42.646;23.380;2022-07-30T06:50:04;94500.81;;;40.36;24.65
8280;BME280;8335;42.646;23.380;2022-07-30T06:52:31;94492.50;;;39.55;25.53
8280;BME280;8335;42.646;23.380;2022-07-30T06:54:58;94494.75;;;39.78;25.24
8280;BME280;8335;42.646;23.380;2022-07-30T06:57:25;94486.72;;;39.63;25.01
8280;BME280;8335;42.646;23.380;2022-07-30T06:59:51;94488.00;;;39.13;25.96
8280;BME280;8335;42.646;23.380;2022-07-30T07:02:18;94488.19;;;39.39;25.95
8280;BME280;8335;42.646;23.380;2022-07-30T07:04:46;94486.56;;;39.00;26.36
8280;BME280;8335;42.646;23.380;2022-07-30T07:07:13;94478.13;;;39.08;26.50
8280;BME280;8335;42.646;23.380;2022-07-30T07:09:40;94471.28;;;38.80;26.41
8280;BME280;8335;42.646;23.380;2022-07-30T07:12:07;94464.88;;;38.49;27.06
8280;BME280;8335;42.646;23.380;2022-07-30T07:14:33;94462.41;;;38.43;27.23
8280;BME280;8335;42.646;23.380;2022-07-30T07:17:00;94468.63;;;39.18;26.31
8280;BME280;8335;42.646;23.380;2022-07-30T07:19:27;94473.69;;;39.77;25.38
8280;BME280;8335;42.646;23.380;2022-07-30T07:21:55;94471.22;;;40.48;25.26
8280;BME280;8335;42.646;23.380;2022-07-30T07:24:22;94475.25;;;40.81;24.79
8280;BME280;8335;42.646;23.380;2022-07-30T07:26:49;94467.44;;;40.19;24.54
8280;BME280;8335;42.646;23.380;2022-07-30T07:29:16;94463.19;;;40.17;24.85
8280;BME280;8335;42.646;23.380;2022-07-30T07:31:42;94465.56;;;40.29;25.00
8280;BME280;8335;42.646;23.380;2022-07-30T07:34:09;94476.84;;;40.62;23.93
8280;BME280;8335;42.646;23.380;2022-07-30T07:36:36;94473.09;;;40.93;24.16
8280;BME280;8335;42.646;23.380;2022-07-30T07:39:05;94456.31;;;40.73;23.73
8280;BME280;8335;42.646;23.380;2022-07-30T07:41:34;94462.69;;;40.92;23.80
8280;BME280;8335;42.646;23.380;2022-07-30T07:44:01;94464.28;;;40.83;23.22
8280;BME280;8335;42.646;23.380;2022-07-30T07:46:28;94468.81;;;41.13;23.69
8280;BME280;8335;42.646;23.380;2022-07-30T07:48:55;94468.28;;;40.50;23.75
8280;BME280;8335;42.646;23.380;2022-07-30T07:51:21;94462.91;;;40.24;23.84
8280;BME280;8335;42.646;23.380;2022-07-30T07:53:48;94459.97;;;40.36;23.71
8280;BME280;8335;42.646;23.380;2022-07-30T07:56:16;94460.84;;;40.52;23.41
8280;BME280;8335;42.646;23.380;2022-07-30T07:58:46;94463.72;;;40.25;24.69
8280;BME280;8335;42.646;23.380;2022-07-30T08:01:13;94461.31;;;40.23;23.86
8280;BME280;8335;42.646;23.380;2022-07-30T08:03:39;94461.31;;;40.23;24.17
8280;BME280;8335;42.646;23.380;2022-07-30T08:06:06;94461.19;;;39.82;24.27
8280;BME280;8335;42.646;23.380;2022-07-30T08:08:33;94447.56;;;39.69;23.89
8280;BME280;8335;42.646;23.380;2022-07-30T08:11:01;94457.03;;;40.12;23.73
8280;BME280;8335;42.646;23.380;2022-07-30T08:13:29;94455.09;;;39.97;24.28
8280;BME280;8335;42.646;23.380;2022-07-30T08:15:57;94452.16;;;39.99;24.06
8280;BME280;8335;42.646;23.380;2022-07-30T08:18:24;94442.66;;;40.33;24.30
8280;BME280;8335;42.646;23.380;2022-07-30T08:20:50;94454.94;;;40.39;24.07
8280;BME280;8335;42.646;23.380;2022-07-30T08:23:17;94445.34;;;40.69;23.54
8280;BME280;8335;42.646;23.380;2022-07-30T08:25:46;94446.94;;;40.80;23.57
8280;BME280;8335;42.646;23.380;2022-07-30T08:28:13;94445.34;;;40.74;23.21
8280;BME280;8335;42.646;23.380;2022-07-30T08:30:41;94447.22;;;40.68;23.90
8280;BME280;8335;42.646;23.380;2022-07-30T08:33:08;94448.56;;;40.66;23.63
8280;BME280;8335;42.646;23.380;2022-07-30T08:35:35;94448.56;;;40.66;23.84
8280;BME280;8335;42.646;23.380;2022-07-30T08:38:02;94450.09;;;40.21;24.23
8280;BME280;8335;42.646;23.380;2022-07-30T08:40:32;94440.78;;;40.24;24.25
8280;BME280;8335;42.646;23.380;2022-07-30T08:42:59;94440.53;;;40.30;24.11
8280;BME280;8335;42.646;23.380;2022-07-30T08:45:27;94442.69;;;40.69;23.84
8280;BME280;8335;42.646;23.380;2022-07-30T08:47:56;94444.25;;;41.11;23.00
8280;BME280;8335;42.646;23.380;2022-07-30T08:50:25;94441.78;;;41.35;22.28
8280;BME280;8335;42.646;23.380;2022-07-30T08:52:52;94439.84;;;41.50;22.65
8280;BME280;8335;42.646;23.380;2022-07-30T08:55:20;94430.97;;;41.75;22.35
8280;BME280;8335;42.646;23.380;2022-07-30T08:57:47;94428.03;;;42.61;21.43
8280;BME280;8335;42.646;23.380;2022-07-30T09:00:15;94439.38;;;43.10;21.64
8280;BME280;8335;42.646;23.380;2022-07-30T09:02:42;94432.59;;;43.42;20.76
8280;BME280;8335;42.646;23.380;2022-07-30T09:05:10;94426.13;;;43.19;21.23
8280;BME280;8335;42.646;23.380;2022-07-30T09:07:38;94428.91;;;43.38;21.01
8280;BME280;8335;42.646;23.380;2022-07-30T09:10:07;94419.88;;;43.53;20.70
8280;BME280;8335;42.646;23.380;2022-07-30T09:12:36;94428.72;;;43.72;19.90
8280;BME280;8335;42.646;23.380;2022-07-30T09:15:06;94421.28;;;43.21;20.45
8280;BME280;8335;42.646;23.380;2022-07-30T09:17:52;94410.63;;;43.16;20.32
8280;BME280;8335;42.646;23.380;2022-07-30T09:20:22;94400.47;;;42.55;20.96
8280;BME280;8335;42.646;23.380;2022-07-30T09:22:50;94403.66;;;42.86;20.91
8280;BME280;8335;42.646;23.380;2022-07-30T09:25:36;94401.34;;;42.06;21.85
8280;BME280;8335;42.646;23.380;2022-07-30T09:28:04;94398.88;;;42.20;21.67
8280;BME280;8335;42.646;23.380;2022-07-30T09:30:47;94386.53;;;42.24;21.55
8280;BME280;8335;42.646;23.380;2022-07-30T09:33:29;94391.63;;;42.59;21.10
8280;BME280;8335;42.646;23.380;2022-07-30T09:35:59;94386.25;;;42.59;21.38
8280;BME280;8335;42.646;23.380;2022-07-30T09:38:26;94391.72;;;42.44;21.67
8280;BME280;8335;42.646;23.380;2022-07-30T09:40:55;94382.72;;;41.91;21.83
8280;BME280;8335;42.646;23.380;2022-07-30T09:43:22;94380.28;;;41.45;22.67
8280;BME280;8335;42.646;23.380;2022-07-30T09:45:50;94386.22;;;41.32;22.11
8280;BME280;8335;42.646;23.380;2022-07-30T09:48:20;94385.34;;;41.46;22.08
8280;BME280;8335;42.646;23.380;2022-07-30T09:50:47;94386.38;;;42.05;21.93
8280;BME280;8335;42.646;23.380;2022-07-30T09:53:16;94373.88;;;42.29;22.03
8280;BME280;8335;42.646;23.380;2022-07-30T09:55:43;94365.94;;;42.53;22.05
8280;BME280;8335;42.646;23.380;2022-07-30T09:58:11;94369.41;;;42.25;22.12
8280;BME280;8335;42.646;23.380;2022-07-30T10:00:38;94378.16;;;41.96;21.15
8280;BME280;8335;42.646;23.380;2022-07-30T10:03:14;94367.53;;;41.32;21.78
8280;BME280;8335;42.646;23.380;2022-07-30T10:05:49;94365.00;;;41.50;22.36
8280;BME280;8335;42.646;23.380;2022-07-30T10:08:17;94371.84;;;41.07;22.15
8280;BME280;8335;42.646;23.380;2022-07-30T10:10:45;94356.75;;;40.52;22.74
8280;BME280;8335;42.646;23.380;2022-07-30T10:13:15;94346.59;;;40.03;23.42
8280;BME280;8335;42.646;23.380;2022-07-30T10:15:42;94345.69;;;39.51;23.90
8280;BME280;8335;42.646;23.380;2022-07-30T10:18:10;94343.16;;;39.19;24.19
8280;BME280;8335;42.646;23.380;2022-07-30T10:20:38;94335.38;;;39.13;24.47
8280;BME280;8335;42.646;23.380;2022-07-30T10:23:06;94329.41;;;38.85;23.96
8280;BME280;8335;42.646;23.380;2022-07-30T10:25:35;94330.50;;;38.89;24.38
8280;BME280;8335;42.646;23.380;2022-07-30T10:28:03;94319.22;;;39.24;24.21
8280;BME280;8335;42.646;23.380;2022-07-30T10:30:31;94322.56;;;38.57;25.21
8280;BME280;8335;42.646;23.380;2022-07-30T10:32:58;94316.88;;;37.74;26.42
8280;BME280;8335;42.646;23.380;2022-07-30T10:35:26;94311.25;;;37.22;26.54
8280;BME280;8335;42.646;23.380;2022-07-30T10:37:53;94313.94;;;36.27;27.84
8280;BME280;8335;42.646;23.380;2022-07-30T10:40:27;94310.28;;;35.49;28.20
8280;BME280;8335;42.646;23.380;2022-07-30T10:43:20;94307.47;;;35.27;28.55
8280;BME280;8335;42.646;23.380;2022-07-30T10:45:56;94303.69;;;35.23;29.12
8280;BME280;8335;42.646;23.380;2022-07-30T10:48:30;94295.81;;;35.28;29.29
8280;BME280;8335;42.646;23.380;2022-07-30T10:50:57;94296.84;;;34.99;29.15
8280;BME280;8335;42.646;23.380;2022-07-30T10:53:31;94294.47;;;35.26;29.06
8280;BME280;8335;42.646;23.380;2022-07-30T10:56:10;94284.81;;;35.20;28.69
8280;BME280;8335;42.646;23.380;2022-07-30T10:59:00;94274.13;;;35.43;28.79
8280;BME280;8335;42.646;23.380;2022-07-30T11:04:27;94283.34;;;35.69;28.32
8280;BME280;8335;42.646;23.380;2022-07-30T11:07:26;94267.25;;;35.42;29.15
8280;BME280;8335;42.646;23.380;2022-07-30T11:09:54;94271.25;;;35.16;30.10
8280;BME280;8335;42.646;23.380;2022-07-30T11:12:52;94263.50;;;34.22;30.84
8280;BME280;8335;42.646;23.380;2022-07-30T11:15:20;94261.25;;;33.84;32.05
8280;BME280;8335;42.646;23.380;2022-07-30T11:18:05;94249.19;;;33.65;31.72
8280;BME280;8335;42.646;23.380;2022-07-30T11:20:34;94256.78;;;33.73;31.82
8280;BME280;8335;42.646;23.380;2022-07-30T11:23:33;94245.06;;;33.69;31.41
8280;BME280;8335;42.646;23.380;2022-07-30T11:25:58;94245.97;;;33.75;31.59
8280;BME280;8335;42.646;23.380;2022-07-30T11:28:39;94244.00;;;33.58;33.05
8280;BME280;8335;42.646;23.380;2022-07-30T11:31:28;94238.47;;;33.48;32.62
8280;BME280;8335;42.646;23.380;2022-07-30T11:34:23;94239.44;;;33.65;32.21
8280;BME280;8335;42.646;23.380;2022-07-30T11:37:09;94236.28;;;33.57;32.48
8280;BME280;8335;42.646;23.380;2022-07-30T11:40:05;94240.44;;;33.53;32.73
8280;BME280;8335;42.646;23.380;2022-07-30T11:42:34;94233.69;;;33.68;32.87
8280;BME280;8335;42.646;23.380;2022-07-30T11:45:21;94227.72;;;33.85;32.10
8280;BME280;8335;42.646;23.380;2022-07-30T11:47:59;94225.56;;;34.05;31.90
8280;BME280;8335;42.646;23.380;2022-07-30T11:50:27;94221.78;;;34.25;31.88
8280;BME280;8335;42.646;23.380;2022-07-30T11:52:56;94220.13;;;34.35;31.12
8280;BME280;8335;42.646;23.380;2022-07-30T11:55:26;94224.97;;;34.27;31.72
8280;BME280;8335;42.646;23.380;2022-07-30T11:57:55;94229.22;;;34.28;31.45
8280;BME280;8335;42.646;23.380;2022-07-30T12:00:22;94218.31;;;34.24;31.23
8280;BME280;8335;42.646;23.380;2022-07-30T12:02:49;94216.84;;;34.16;31.54
8280;BME280;8335;42.646;23.380;2022-07-30T12:05:22;94207.53;;;34.14;31.35
8280;BME280;8335;42.646;23.380;2022-07-30T12:07:50;94202.16;;;34.09;31.68
8280;BME280;8335;42.646;23.380;2022-07-30T12:10:18;94194.78;;;34.11;32.75
8280;BME280;8335;42.646;23.380;2022-07-30T12:12:46;94186.13;;;34.27;31.88
8280;BME280;8335;42.646;23.380;2022-07-30T12:15:28;94193.16;;;34.21;31.62
8280;BME280;8335;42.646;23.380;2022-07-30T12:17:55;94197.25;;;34.29;31.94
8280;BME280;8335;42.646;23.380;2022-07-30T12:20:23;94210.16;;;34.14;32.05
8280;BME280;8335;42.646;23.380;2022-07-30T12:22:50;94192.84;;;33.94;31.95
8280;BME280;8335;42.646;23.380;2022-07-30T12:25:17;94188.25;;;33.90;32.08
8280;BME280;8335;42.646;23.380;2022-07-30T12:27:44;94185.00;;;33.76;32.67
8280;BME280;8335;42.646;23.380;2022-07-30T12:30:13;94180.09;;;33.80;32.39
8280;BME280;8335;42.646;23.380;2022-07-30T12:32:40;94181.78;;;33.62;32.86
8280;BME280;8335;42.646;23.380;2022-07-30T12:35:08;94161.69;;;33.50;33.00
8280;BME280;8335;42.646;23.380;2022-07-30T12:37:36;94167.06;;;33.43;33.47
8280;BME280;8335;42.646;23.380;2022-07-30T12:40:10;94163.19;;;33.46;32.84
8280;BME280;8335;42.646;23.380;2022-07-30T12:42:48;94155.25;;;33.46;32.68
8280;BME280;8335;42.646;23.380;2022-07-30T12:45:27;94142.41;;;33.49;33.67
8280;BME280;8335;42.646;23.380;2022-07-30T12:47:54;94143.44;;;33.60;32.80
8280;BME280;8335;42.646;23.380;2022-07-30T12:50:22;94139.19;;;33.71;32.65
8280;BME280;8335;42.646;23.380;2022-07-30T12:52:52;94135.06;;;33.63;32.26
8280;BME280;8335;42.646;23.380;2022-07-30T12:55:27;94133.56;;;33.67;32.20
8280;BME280;8335;42.646;23.380;2022-07-30T12:57:57;94141.25;;;33.68;32.27
8280;BME280;8335;42.646;23.380;2022-07-30T13:00:25;94127.03;;;33.58;32.67
8280;BME280;8335;42.646;23.380;2022-07-30T13:02:52;94131.50;;;33.69;32.14
8280;BME280;8335;42.646;23.380;2022-07-30T13:05:19;94110.38;;;33.81;31.82
8280;BME280;8335;42.646;23.380;2022-07-30T13:07:58;94122.31;;;33.72;32.32
8280;BME280;8335;42.646;23.380;2022-07-30T13:10:27;94119.22;;;33.63;32.56
8280;BME280;8335;42.646;23.380;2022-07-30T13:12:53;94110.63;;;33.67;32.12
8280;BME280;8335;42.646;23.380;2022-07-30T13:15:21;94103.81;;;33.72;32.33
8280;BME280;8335;42.646;23.380;2022-07-30T13:17:48;94110.13;;;33.82;32.45
8280;BME280;8335;42.646;23.380;2022-07-30T13:20:15;94101.28;;;33.77;32.28
8280;BME280;8335;42.646;23.380;2022-07-30T13:22:42;94095.94;;;33.60;32.54
8280;BME280;8335;42.646;23.380;2022-07-30T13:25:11;94098.34;;;33.61;32.30